sensor_id;sensor_type;location;lat;lon;timestamp;temperature;humidity
30063;DHT22;16889;67.864;24.990;2022-12-18T00:02:56;-24.40;99.90
30063;DHT22;16889;67.864;24.990;2022-12-18T00:07:41;-24.50;99.90
30063;DHT22;16889;67.864;24.990;2022-12-18T00:12:27;-24.60;99.90
30063;DHT22;16889;67.864;24.990;2022-12-18T00:17:13;-24.90;99.90
30063;DHT22;16889;67.864;24.990;2022-12-18T00:21:59;-24.90;99.90
30063;DHT22;16889;67.864;24.990;2022-12-18T00:26:45;-25.00;99.90
30063;DHT22;16889;67.864;24.990;2022-12-18T00:31:31;-25.10;99.90
30063;DHT22;16889;67.864;24.990;2022-12-18T00:36:23;-25.00;99.90
30063;DHT22;16889;67.864;24.990;2022-12-18T00:41:11;-24.80;99.90
30063;DHT22;16889;67.864;24.990;2022-12-18T00:45:58;-24.80;99.90
30063;DHT22;16889;67.864;24.990;2022-12-18T00:50:44;-25.10;99.90
30063;DHT22;16889;67.864;24.990;2022-12-18T00:55:30;-25.00;99.90
30063;DHT22;16889;67.864;24.990;2022-12-18T01:00:16;-25.20;99.90
30063;DHT22;16889;67.864;24.990;2022-12-18T01:05:02;-25.30;99.90
30063;DHT22;16889;67.864;24.990;2022-12-18T01:09:48;-24.80;99.90
30063;DHT22;16889;67.864;24.990;2022-12-18T01:14:34;-25.10;99.90
30063;DHT22;16889;67.864;24.990;2022-12-18T01:19:20;-25.20;99.90
30063;DHT22;16889;67.864;24.990;2022-12-18T01:24:06;-25.00;99.90
30063;DHT22;16889;67.864;24.990;2022-12-18T01:28:54;-24.70;99.90
30063;DHT22;16889;67.864;24.990;2022-12-18T01:33:41;-24.60;99.90
30063;DHT22;16889;67.864;24.990;2022-12-18T01:38:28;-24.40;99.90
30063;DHT22;16889;67.864;24.990;2022-12-18T01:43:15;-24.40;99.90
30063;DHT22;16889;67.864;24.990;2022-12-18T01:48:03;-24.40;99.90
30063;DHT22;16889;67.864;24.990;2022-12-18T01:53:01;-24.30;99.90
30063;DHT22;16889;67.864;24.990;2022-12-18T01:57:48;-24.20;99.90
30063;DHT22;16889;67.864;24.990;2022-12-18T02:02:35;-24.30;99.90
30063;DHT22;16889;67.864;24.990;2022-12-18T02:12:35;-24.60;99.90
30063;DHT22;16889;67.864;24.990;2022-12-18T02:17:28;-24.60;99.90
30063;DHT22;16889;67.864;24.990;2022-12-18T02:27:05;-24.80;99.90
30063;DHT22;16889;67.864;24.990;2022-12-18T02:31:57;-24.50;99.90
30063;DHT22;16889;67.864;24.990;2022-12-18T02:37:03;-24.20;99.90
30063;DHT22;16889;67.864;24.990;2022-12-18T02:41:50;-23.90;99.90
30063;DHT22;16889;67.864;24.990;2022-12-18T02:46:43;-23.70;99.90
30063;DHT22;16889;67.864;24.990;2022-12-18T02:51:42;-23.60;99.90
30063;DHT22;16889;67.864;24.990;2022-12-18T02:56:38;-23.30;99.90
30063;DHT22;16889;67.864;24.990;2022-12-18T03:06:40;-23.10;99.90
30063;DHT22;16889;67.864;24.990;2022-12-18T03:11:31;-23.20;99.90
30063;DHT22;16889;67.864;24.990;2022-12-18T03:16:37;-22.90;99.90
30063;DHT22;16889;67.864;24.990;2022-12-18T03:21:33;-22.60;99.90
30063;DHT22;16889;67.864;24.990;2022-12-18T03:26:25;-22.60;99.90
30063;DHT22;16889;67.864;24.990;2022-12-18T03:31:14;-22.60;99.90
30063;DHT22;16889;67.864;24.990;2022-12-18T03:36:00;-22.50;99.90
30063;DHT22;16889;67.864;24.990;2022-12-18T03:41:07;-22.80;99.90
30063;DHT22;16889;67.864;24.990;2022-12-18T03:46:11;-22.60;99.90
30063;DHT22;16889;67.864;24.990;2022-12-18T03:51:06;-22.50;99.90
30063;DHT22;16889;67.864;24.990;2022-12-18T03:55:54;-22.40;99.90
30063;DHT22;16889;67.864;24.990;2022-12-18T04:00:41;-22.40;99.90
30063;DHT22;16889;67.864;24.990;2022-12-18T04:05:28;-22.30;99.90
30063;DHT22;16889;67.864;24.990;2022-12-18T04:10:16;-22.40;99.90
30063;DHT22;16889;67.864;24.990;2022-12-18T04:15:03;-22.40;99.90
30063;DHT22;16889;67.864;24.990;2022-12-18T04:19:49;-22.30;99.90
30063;DHT22;16889;67.864;24.990;2022-12-18T04:24:35;-22.30;99.90
30063;DHT22;16889;67.864;24.990;2022-12-18T04:29:21;-22.20;99.90
30063;DHT22;16889;67.864;24.990;2022-12-18T04:34:07;-22.20;99.90
30063;DHT22;16889;67.864;24.990;2022-12-18T04:38:53;-22.20;99.90
30063;DHT22;16889;67.864;24.990;2022-12-18T04:43:39;-22.10;99.90
30063;DHT22;16889;67.864;24.990;2022-12-18T04:48:25;-22.20;99.90
30063;DHT22;16889;67.864;24.990;2022-12-18T04:53:11;-22.10;99.90
30063;DHT22;16889;67.864;24.990;2022-12-18T04:57:57;-22.00;99.90
30063;DHT22;16889;67.864;24.990;2022-12-18T05:02:43;-22.10;99.90
30063;DHT22;16889;67.864;24.990;2022-12-18T05:07:29;-22.20;99.90
30063;DHT22;16889;67.864;24.990;2022-12-18T05:12:15;-22.30;99.90
30063;DHT22;16889;67.864;24.990;2022-12-18T05:17:01;-22.40;99.90
30063;DHT22;16889;67.864;24.990;2022-12-18T05:21:47;-22.30;99.90
30063;DHT22;16889;67.864;24.990;2022-12-18T05:26:34;-22.30;99.90
30063;DHT22;16889;67.864;24.990;2022-12-18T05:31:19;-22.40;99.90
30063;DHT22;16889;67.864;24.990;2022-12-18T05:36:07;-22.60;99.90
30063;DHT22;16889;67.864;24.990;2022-12-18T05:40:54;-22.60;99.90
30063;DHT22;16889;67.864;24.990;2022-12-18T06:42:26;-22.70;99.90
30063;DHT22;16889;67.864;24.990;2022-12-18T06:47:14;-22.50;99.90
30063;DHT22;16889;67.864;24.990;2022-12-18T06:52:00;-22.60;99.90
30063;DHT22;16889;67.864;24.990;2022-12-18T06:56:46;-22.60;99.90
30063;DHT22;16889;67.864;24.990;2022-12-18T07:01:32;-22.70;99.90
30063;DHT22;16889;67.864;24.990;2022-12-18T07:06:19;-22.80;99.90
30063;DHT22;16889;67.864;24.990;2022-12-18T07:11:06;-22.70;99.90
30063;DHT22;16889;67.864;24.990;2022-12-18T07:15:52;-22.60;99.90
30063;DHT22;16889;67.864;24.990;2022-12-18T07:20:38;-22.60;99.90
30063;DHT22;16889;67.864;24.990;2022-12-18T07:25:24;-22.50;99.90
30063;DHT22;16889;67.864;24.990;2022-12-18T07:30:10;-22.30;99.90
30063;DHT22;16889;67.864;24.990;2022-12-18T07:34:56;-22.10;99.90
30063;DHT22;16889;67.864;24.990;2022-12-18T07:39:42;-22.00;99.90
30063;DHT22;16889;67.864;24.990;2022-12-18T07:44:28;-22.10;99.90
30063;DHT22;16889;67.864;24.990;2022-12-18T07:49:14;-22.20;99.90
30063;DHT22;16889;67.864;24.990;2022-12-18T07:54:00;-22.10;99.90
30063;DHT22;16889;67.864;24.990;2022-12-18T07:58:46;-22.10;99.90
30063;DHT22;16889;67.864;24.990;2022-12-18T08:03:33;-22.10;99.90
30063;DHT22;16889;67.864;24.990;2022-12-18T08:08:21;-22.40;99.90
30063;DHT22;16889;67.864;24.990;2022-12-18T08:13:07;-22.40;99.90
30063;DHT22;16889;67.864;24.990;2022-12-18T08:23:00;-22.40;99.90
30063;DHT22;16889;67.864;24.990;2022-12-18T08:27:46;-22.30;99.90
30063;DHT22;16889;67.864;24.990;2022-12-18T08:32:52;-22.30;99.90
30063;DHT22;16889;67.864;24.990;2022-12-18T08:37:41;-22.40;99.90
30063;DHT22;16889;67.864;24.990;2022-12-18T08:42:27;-22.30;99.90
30063;DHT22;16889;67.864;24.990;2022-12-18T08:47:41;-22.40;99.90
30063;DHT22;16889;67.864;24.990;2022-12-18T08:52:27;-22.40;99.90
30063;DHT22;16889;67.864;24.990;2022-12-18T08:57:13;-22.30;99.90
30063;DHT22;16889;67.864;24.990;2022-12-18T09:01:59;-22.40;99.90
30063;DHT22;16889;67.864;24.990;2022-12-18T09:06:48;-22.20;99.90
30063;DHT22;16889;67.864;24.990;2022-12-18T09:11:34;-22.00;99.90
30063;DHT22;16889;67.864;24.990;2022-12-18T09:16:21;-22.20;99.90
30063;DHT22;16889;67.864;24.990;2022-12-18T09:21:11;-22.20;99.90
30063;DHT22;16889;67.864;24.990;2022-12-18T09:26:00;-22.00;99.90
30063;DHT22;16889;67.864;24.990;2022-12-18T09:30:48;-21.90;99.90
30063;DHT22;16889;67.864;24.990;2022-12-18T09:35:39;-21.70;99.90
30063;DHT22;16889;67.864;24.990;2022-12-18T09:40:26;-21.50;99.90
30063;DHT22;16889;67.864;24.990;2022-12-18T09:45:15;-21.50;99.90
30063;DHT22;16889;67.864;24.990;2022-12-18T09:50:06;-21.50;99.90
30063;DHT22;16889;67.864;24.990;2022-12-18T09:55:15;-21.50;99.90
30063;DHT22;16889;67.864;24.990;2022-12-18T10:00:15;-21.40;99.90
30063;DHT22;16889;67.864;24.990;2022-12-18T10:05:06;-21.50;99.90
30063;DHT22;16889;67.864;24.990;2022-12-18T10:20:41;-21.20;99.90
30063;DHT22;16889;67.864;24.990;2022-12-18T10:30:32;-21.30;99.90
30063;DHT22;16889;67.864;24.990;2022-12-18T10:35:21;-21.20;99.90
30063;DHT22;16889;67.864;24.990;2022-12-18T10:40:12;-21.00;99.90
30063;DHT22;16889;67.864;24.990;2022-12-18T10:45:07;-20.70;99.90
30063;DHT22;16889;67.864;24.990;2022-12-18T10:49:54;-20.40;99.90
30063;DHT22;16889;67.864;24.990;2022-12-18T10:55:12;-20.40;99.90
30063;DHT22;16889;67.864;24.990;2022-12-18T10:59:56;-20.20;99.90
30063;DHT22;16889;67.864;24.990;2022-12-18T11:04:51;-20.00;99.90
30063;DHT22;16889;67.864;24.990;2022-12-18T11:09:39;-19.90;99.90
30063;DHT22;16889;67.864;24.990;2022-12-18T11:14:47;-19.70;99.90
30063;DHT22;16889;67.864;24.990;2022-12-18T11:19:39;-19.60;99.90
30063;DHT22;16889;67.864;24.990;2022-12-18T11:24:35;-19.60;99.90
30063;DHT22;16889;67.864;24.990;2022-12-18T11:29:39;-19.40;99.90
30063;DHT22;16889;67.864;24.990;2022-12-18T11:34:28;-19.40;99.90
30063;DHT22;16889;67.864;24.990;2022-12-18T11:39:37;-19.40;99.90
30063;DHT22;16889;67.864;24.990;2022-12-18T11:44:49;-19.30;99.90
30063;DHT22;16889;67.864;24.990;2022-12-18T11:49:34;-19.10;99.90
30063;DHT22;16889;67.864;24.990;2022-12-18T11:54:20;-19.10;99.90
30063;DHT22;16889;67.864;24.990;2022-12-18T11:59:19;-19.00;99.90
30063;DHT22;16889;67.864;24.990;2022-12-18T12:14:41;-18.40;99.90
30063;DHT22;16889;67.864;24.990;2022-12-18T12:20:00;-18.00;99.90
30063;DHT22;16889;67.864;24.990;2022-12-18T12:25:14;-17.90;99.90
30063;DHT22;16889;67.864;24.990;2022-12-18T12:40:18;-17.60;99.90
30063;DHT22;16889;67.864;24.990;2022-12-18T12:45:16;-17.50;99.90
30063;DHT22;16889;67.864;24.990;2022-12-18T12:50:12;-17.40;99.90
30063;DHT22;16889;67.864;24.990;2022-12-18T12:54:59;-17.30;99.90
30063;DHT22;16889;67.864;24.990;2022-12-18T13:00:19;-17.20;99.90
30063;DHT22;16889;67.864;24.990;2022-12-18T13:05:23;-17.10;99.90
30063;DHT22;16889;67.864;24.990;2022-12-18T13:11:04;-17.00;99.90
30063;DHT22;16889;67.864;24.990;2022-12-18T13:16:06;-17.00;99.90
30063;DHT22;16889;67.864;24.990;2022-12-18T13:25:45;-16.80;99.90
30063;DHT22;16889;67.864;24.990;2022-12-18T13:45:49;-16.40;99.90
30063;DHT22;16889;67.864;24.990;2022-12-18T13:50:53;-16.20;99.90
30063;DHT22;16889;67.864;24.990;2022-12-18T13:55:44;-16.10;99.90
30063;DHT22;16889;67.864;24.990;2022-12-18T14:00:31;-16.00;99.90
30063;DHT22;16889;67.864;24.990;2022-12-18T14:05:29;-15.90;99.90
30063;DHT22;16889;67.864;24.990;2022-12-18T14:10:16;-15.80;99.90
30063;DHT22;16889;67.864;24.990;2022-12-18T14:15:03;-15.70;99.90
30063;DHT22;16889;67.864;24.990;2022-12-18T14:19:52;-15.60;99.90
30063;DHT22;16889;67.864;24.990;2022-12-18T14:24:38;-15.30;99.90
30063;DHT22;16889;67.864;24.990;2022-12-18T14:29:25;-15.10;99.90
30063;DHT22;16889;67.864;24.990;2022-12-18T14:34:17;-15.10;99.90
30063;DHT22;16889;67.864;24.990;2022-12-18T14:39:04;-15.10;99.90
30063;DHT22;16889;67.864;24.990;2022-12-18T14:43:52;-14.90;99.90
30063;DHT22;16889;67.864;24.990;2022-12-18T14:48:41;-14.70;99.90
30063;DHT22;16889;67.864;24.990;2022-12-18T14:53:43;-14.50;99.90
30063;DHT22;16889;67.864;24.990;2022-12-18T14:58:30;-14.50;99.90
30063;DHT22;16889;67.864;24.990;2022-12-18T15:03:20;-14.40;99.90
30063;DHT22;16889;67.864;24.990;2022-12-18T15:08:28;-14.30;99.90
30063;DHT22;16889;67.864;24.990;2022-12-18T15:13:22;-14.10;99.90
30063;DHT22;16889;67.864;24.990;2022-12-18T15:22:56;-14.00;99.90
30063;DHT22;16889;67.864;24.990;2022-12-18T15:27:46;-14.00;99.90
30063;DHT22;16889;67.864;24.990;2022-12-18T15:32:33;-13.80;99.90
30063;DHT22;16889;67.864;24.990;2022-12-18T15:37:19;-13.90;99.90
30063;DHT22;16889;67.864;24.990;2022-12-18T15:42:08;-13.70;99.90
30063;DHT22;16889;67.864;24.990;2022-12-18T15:47:13;-13.50;99.90
30063;DHT22;16889;67.864;24.990;2022-12-18T15:51:59;-13.50;99.90
30063;DHT22;16889;67.864;24.990;2022-12-18T15:56:45;-13.60;99.90
30063;DHT22;16889;67.864;24.990;2022-12-18T16:01:52;-13.30;99.90
30063;DHT22;16889;67.864;24.990;2022-12-18T16:06:41;-13.20;99.90
30063;DHT22;16889;67.864;24.990;2022-12-18T16:11:29;-13.30;99.90
30063;DHT22;16889;67.864;24.990;2022-12-18T16:16:24;-13.10;99.90
30063;DHT22;16889;67.864;24.990;2022-12-18T16:21:10;-12.90;99.90
30063;DHT22;16889;67.864;24.990;2022-12-18T16:25:56;-12.70;99.90
30063;DHT22;16889;67.864;24.990;2022-12-18T16:30:42;-12.20;99.90
30063;DHT22;16889;67.864;24.990;2022-12-18T16:35:28;-11.40;99.90
30063;DHT22;16889;67.864;24.990;2022-12-18T16:40:16;-10.80;99.90
30063;DHT22;16889;67.864;24.990;2022-12-18T16:45:04;-10.50;99.90
30063;DHT22;16889;67.864;24.990;2022-12-18T16:49:51;-10.10;99.90
30063;DHT22;16889;67.864;24.990;2022-12-18T16:54:37;-10.00;99.90
30063;DHT22;16889;67.864;24.990;2022-12-18T16:59:23;-9.60;99.90
30063;DHT22;16889;67.864;24.990;2022-12-18T17:14:58;-9.20;99.90
30063;DHT22;16889;67.864;24.990;2022-12-18T17:30:21;-8.40;99.90
30063;DHT22;16889;67.864;24.990;2022-12-18T17:35:08;-8.30;99.90
30063;DHT22;16889;67.864;24.990;2022-12-18T17:39:54;-8.20;99.90
30063;DHT22;16889;67.864;24.990;2022-12-18T17:44:40;-8.10;99.90
30063;DHT22;16889;67.864;24.990;2022-12-18T17:49:27;-7.60;99.90
30063;DHT22;16889;67.864;24.990;2022-12-18T17:54:13;-7.30;99.90
30063;DHT22;16889;67.864;24.990;2022-12-18T17:58:59;-7.10;99.90
30063;DHT22;16889;67.864;24.990;2022-12-18T18:03:45;-7.00;99.90
30063;DHT22;16889;67.864;24.990;2022-12-18T18:08:33;-6.90;99.90
30063;DHT22;16889;67.864;24.990;2022-12-18T18:18:23;-6.60;99.90
30063;DHT22;16889;67.864;24.990;2022-12-18T18:23:09;-6.40;99.90
30063;DHT22;16889;67.864;24.990;2022-12-18T18:27:56;-6.30;99.90
30063;DHT22;16889;67.864;24.990;2022-12-18T18:32:42;-6.00;99.90
30063;DHT22;16889;67.864;24.990;2022-12-18T18:37:28;-5.80;99.90
30063;DHT22;16889;67.864;24.990;2022-12-18T18:42:14;-5.80;99.90
30063;DHT22;16889;67.864;24.990;2022-12-18T18:47:00;-5.60;99.90
30063;DHT22;16889;67.864;24.990;2022-12-18T18:51:48;-5.40;99.90
30063;DHT22;16889;67.864;24.990;2022-12-18T18:56:34;-5.20;99.90
30063;DHT22;16889;67.864;24.990;2022-12-18T19:01:21;-5.20;99.90
30063;DHT22;16889;67.864;24.990;2022-12-18T19:06:09;-5.20;99.90
30063;DHT22;16889;67.864;24.990;2022-12-18T19:10:58;-5.20;99.90
30063;DHT22;16889;67.864;24.990;2022-12-18T19:15:44;-5.10;99.90
30063;DHT22;16889;67.864;24.990;2022-12-18T19:20:30;-5.00;99.90
30063;DHT22;16889;67.864;24.990;2022-12-18T19:25:16;-4.90;99.90
30063;DHT22;16889;67.864;24.990;2022-12-18T19:30:03;-4.90;99.90
30063;DHT22;16889;67.864;24.990;2022-12-18T19:34:49;-4.80;99.90
30063;DHT22;16889;67.864;24.990;2022-12-18T19:39:35;-4.80;99.90
30063;DHT22;16889;67.864;24.990;2022-12-18T19:44:21;-4.80;99.90
30063;DHT22;16889;67.864;24.990;2022-12-18T19:49:07;-4.90;99.90
30063;DHT22;16889;67.864;24.990;2022-12-18T19:53:54;-4.80;99.90
30063;DHT22;16889;67.864;24.990;2022-12-18T19:58:40;-4.80;99.90
30063;DHT22;16889;67.864;24.990;2022-12-18T20:03:26;-4.80;99.90
30063;DHT22;16889;67.864;24.990;2022-12-18T20:08:12;-4.80;99.90
30063;DHT22;16889;67.864;24.990;2022-12-18T20:12:58;-4.80;99.90
30063;DHT22;16889;67.864;24.990;2022-12-18T20:17:44;-4.80;99.90
30063;DHT22;16889;67.864;24.990;2022-12-18T20:22:31;-4.70;99.90
30063;DHT22;16889;67.864;24.990;2022-12-18T20:27:17;-4.70;99.90
30063;DHT22;16889;67.864;24.990;2022-12-18T20:32:03;-4.70;99.90
30063;DHT22;16889;67.864;24.990;2022-12-18T20:36:49;-4.70;99.90
30063;DHT22;16889;67.864;24.990;2022-12-18T20:41:35;-4.70;99.90
30063;DHT22;16889;67.864;24.990;2022-12-18T20:46:21;-4.70;99.90
30063;DHT22;16889;67.864;24.990;2022-12-18T20:51:13;-4.70;99.90
30063;DHT22;16889;67.864;24.990;2022-12-18T20:56:00;-4.70;99.90
30063;DHT22;16889;67.864;24.990;2022-12-18T21:00:46;-4.70;99.90
30063;DHT22;16889;67.864;24.990;2022-12-18T21:05:32;-4.60;99.90
30063;DHT22;16889;67.864;24.990;2022-12-18T21:10:18;-4.60;99.90
30063;DHT22;16889;67.864;24.990;2022-12-18T21:15:07;-4.50;99.90
30063;DHT22;16889;67.864;24.990;2022-12-18T21:19:54;-4.60;99.90
30063;DHT22;16889;67.864;24.990;2022-12-18T21:24:40;-4.60;99.90
30063;DHT22;16889;67.864;24.990;2022-12-18T21:29:26;-4.60;99.90
30063;DHT22;16889;67.864;24.990;2022-12-18T21:34:18;-4.60;99.90
30063;DHT22;16889;67.864;24.990;2022-12-18T21:39:05;-4.60;99.90
30063;DHT22;16889;67.864;24.990;2022-12-18T21:43:51;-4.60;99.90
30063;DHT22;16889;67.864;24.990;2022-12-18T21:48:52;-4.60;99.90
30063;DHT22;16889;67.864;24.990;2022-12-18T21:53:38;-4.60;99.90
30063;DHT22;16889;67.864;24.990;2022-12-18T21:58:25;-4.60;99.90
30063;DHT22;16889;67.864;24.990;2022-12-18T22:03:11;-4.60;99.90
30063;DHT22;16889;67.864;24.990;2022-12-18T22:07:57;-4.50;99.90
30063;DHT22;16889;67.864;24.990;2022-12-18T22:12:43;-4.40;99.90
30063;DHT22;16889;67.864;24.990;2022-12-18T22:17:29;-4.40;99.90
30063;DHT22;16889;67.864;24.990;2022-12-18T22:22:15;-4.40;99.90
30063;DHT22;16889;67.864;24.990;2022-12-18T22:27:01;-4.40;99.90
30063;DHT22;16889;67.864;24.990;2022-12-18T22:31:47;-4.20;99.90
30063;DHT22;16889;67.864;24.990;2022-12-18T22:36:36;-4.20;99.90
30063;DHT22;16889;67.864;24.990;2022-12-18T22:41:23;-4.10;99.90
30063;DHT22;16889;67.864;24.990;2022-12-18T22:46:15;-4.10;99.90
30063;DHT22;16889;67.864;24.990;2022-12-18T22:51:02;-4.20;99.90
30063;DHT22;16889;67.864;24.990;2022-12-18T22:55:47;-4.10;99.90
30063;DHT22;16889;67.864;24.990;2022-12-18T23:00:34;-4.00;99.90
30063;DHT22;16889;67.864;24.990;2022-12-18T23:05:20;-4.00;99.90
30063;DHT22;16889;67.864;24.990;2022-12-18T23:10:06;-4.10;99.90
30063;DHT22;16889;67.864;24.990;2022-12-18T23:14:52;-4.10;99.90
30063;DHT22;16889;67.864;24.990;2022-12-18T23:19:38;-4.20;99.90
30063;DHT22;16889;67.864;24.990;2022-12-18T23:24:25;-4.20;99.90
30063;DHT22;16889;67.864;24.990;2022-12-18T23:29:11;-4.30;99.90
30063;DHT22;16889;67.864;24.990;2022-12-18T23:33:59;-4.30;99.90
30063;DHT22;16889;67.864;24.990;2022-12-18T23:38:52;-4.40;99.90
30063;DHT22;16889;67.864;24.990;2022-12-18T23:43:39;-4.30;99.90
30063;DHT22;16889;67.864;24.990;2022-12-18T23:48:25;-4.20;99.90
30063;DHT22;16889;67.864;24.990;2022-12-18T23:53:11;-4.30;99.90
30063;DHT22;16889;67.864;24.990;2022-12-18T23:57:57;-4.30;99.90
